createdAt,value
2023-05-16T00:02:03.015Z,11.50
2023-05-16T00:04:29.946Z,11.40
2023-05-16T00:06:56.661Z,11.50
2023-05-16T00:09:23.263Z,11.40
2023-05-16T00:11:50.896Z,11.40
2023-05-16T00:14:19.115Z,11.40
2023-05-16T00:16:47.226Z,11.40
2023-05-16T00:19:14.042Z,11.40
2023-05-16T00:21:40.754Z,11.40
2023-05-16T00:24:07.636Z,11.40
2023-05-16T00:26:34.257Z,11.40
2023-05-16T00:29:00.954Z,11.40
2023-05-16T00:31:31.693Z,11.40
2023-05-16T00:33:58.424Z,11.30
2023-05-16T00:36:25.182Z,11.20
2023-05-16T00:38:51.797Z,11.20
2023-05-16T00:41:18.486Z,11.20
2023-05-16T00:43:45.308Z,11.20
2023-05-16T00:46:12.106Z,11.30
2023-05-16T00:48:38.769Z,11.40
2023-05-16T00:51:09.180Z,11.40
2023-05-16T00:53:36.981Z,11.40
2023-05-16T00:56:04.134Z,11.30
2023-05-16T00:58:32.180Z,11.20
2023-05-16T01:00:58.867Z,11.30
2023-05-16T01:03:25.677Z,11.20
2023-05-16T01:05:53.636Z,11.20
2023-05-16T01:08:21.553Z,11.20
2023-05-16T01:11:32.889Z,11.30
2023-05-16T01:14:43.570Z,11.20
2023-05-16T01:17:56.095Z,11.30
2023-05-16T01:20:41.077Z,11.20
2023-05-16T01:23:51.412Z,11.20
2023-05-16T01:26:30.037Z,11.10
2023-05-16T01:28:59.477Z,11.10
2023-05-16T01:31:26.227Z,11.00
2023-05-16T01:33:52.873Z,11.00
2023-05-16T01:36:31.336Z,11.00
2023-05-16T01:39:23.181Z,11.10
2023-05-16T01:42:10.871Z,11.10
2023-05-16T01:45:29.844Z,11.10
2023-05-16T01:48:06.566Z,11.10
2023-05-16T01:50:41.204Z,11.10
2023-05-16T01:53:12.554Z,11.10
2023-05-16T01:55:56.688Z,11.10
2023-05-16T01:58:29.583Z,11.00
2023-05-16T02:01:05.437Z,11.00
2023-05-16T02:03:32.409Z,11.00
2023-05-16T02:05:59.664Z,11.00
2023-05-16T02:08:28.363Z,11.00
2023-05-16T02:10:54.970Z,11.00
2023-05-16T02:13:21.595Z,11.00
2023-05-16T02:15:48.191Z,11.00
2023-05-16T02:18:14.821Z,11.00
2023-05-16T02:20:41.599Z,11.00
2023-05-16T02:23:08.264Z,11.00
2023-05-16T02:25:34.918Z,11.00
2023-05-16T02:28:01.564Z,11.00
2023-05-16T02:30:28.223Z,11.10
2023-05-16T02:32:57.045Z,11.10
2023-05-16T02:35:24.461Z,11.10
2023-05-16T02:37:51.312Z,11.10
2023-05-16T02:40:18.233Z,11.10
2023-05-16T02:42:44.832Z,11.10
2023-05-16T02:45:12.312Z,11.10
2023-05-16T02:47:38.983Z,11.10
2023-05-16T02:50:06.250Z,11.10
2023-05-16T02:52:35.489Z,11.20
2023-05-16T02:55:16.896Z,11.20
2023-05-16T02:57:48.051Z,11.30
2023-05-16T03:00:17.741Z,11.30
2023-05-16T03:02:45.556Z,11.30
2023-05-16T03:05:12.486Z,11.40
2023-05-16T03:07:39.546Z,11.40
2023-05-16T03:10:07.183Z,11.50
2023-05-16T03:12:33.786Z,11.50
2023-05-16T03:15:00.389Z,11.50
2023-05-16T03:17:28.663Z,11.50
2023-05-16T03:19:55.404Z,11.60
2023-05-16T03:22:21.974Z,11.60
2023-05-16T03:24:48.677Z,11.60
2023-05-16T03:27:15.318Z,11.60
2023-05-16T03:29:41.903Z,11.60
2023-05-16T03:32:09.596Z,11.70
2023-05-16T03:34:36.568Z,11.70
2023-05-16T03:37:03.517Z,11.70
2023-05-16T03:39:30.154Z,11.70
2023-05-16T03:41:57.117Z,11.70
2023-05-16T03:44:23.929Z,11.70
2023-05-16T03:46:51.445Z,11.70
2023-05-16T03:49:18.358Z,11.70
2023-05-16T03:51:45.205Z,11.70
2023-05-16T03:54:11.782Z,11.70
2023-05-16T03:56:38.380Z,11.70
2023-05-16T03:59:04.971Z,11.70
2023-05-16T04:01:31.563Z,11.70
2023-05-16T04:03:58.188Z,11.70
2023-05-16T04:06:24.810Z,11.70
2023-05-16T04:08:51.413Z,11.70
2023-05-16T04:11:18.050Z,11.70
2023-05-16T04:13:44.776Z,11.60
2023-05-16T04:16:11.486Z,11.50
2023-05-16T04:18:38.201Z,11.50
2023-05-16T04:21:05.237Z,11.50
2023-05-16T04:23:31.937Z,11.50
2023-05-16T04:25:59.493Z,11.60
2023-05-16T04:28:26.074Z,11.60
2023-05-16T04:30:53.323Z,11.60
2023-05-16T04:33:19.961Z,11.60
2023-05-16T04:35:46.535Z,11.60
2023-05-16T04:38:13.232Z,11.60
2023-05-16T04:40:44.721Z,11.60
2023-05-16T04:43:11.294Z,11.60
2023-05-16T04:45:38.059Z,11.60
2023-05-16T04:48:04.952Z,11.60
2023-05-16T04:50:31.661Z,11.60
2023-05-16T04:52:58.246Z,11.60
2023-05-16T04:55:25.114Z,11.60
2023-05-16T04:57:51.800Z,11.60
2023-05-16T05:00:18.723Z,11.50
2023-05-16T05:02:45.330Z,11.50
2023-05-16T05:05:12.604Z,11.50
2023-05-16T05:07:39.396Z,11.40
2023-05-16T05:10:07.542Z,11.40
2023-05-16T05:12:35.388Z,11.50
2023-05-16T05:15:02.124Z,11.40
2023-05-16T05:17:29.648Z,11.30
2023-05-16T05:19:56.326Z,11.20
2023-05-16T05:22:22.973Z,11.10
2023-05-16T05:24:49.697Z,11.10
2023-05-16T05:27:16.344Z,11.10
2023-05-16T05:29:43.022Z,11.10
2023-05-16T05:32:09.881Z,11.10
2023-05-16T05:34:36.844Z,11.00
2023-05-16T05:37:04.306Z,11.00
2023-05-16T05:39:30.967Z,11.10
2023-05-16T05:41:58.553Z,11.10
2023-05-16T05:44:25.206Z,11.10
2023-05-16T05:46:51.853Z,11.00
2023-05-16T05:49:18.575Z,11.00
2023-05-16T05:51:45.222Z,11.00
2023-05-16T05:54:12.006Z,11.00
2023-05-16T05:56:38.635Z,10.90
2023-05-16T05:59:05.255Z,10.80
2023-05-16T06:01:31.868Z,10.70
2023-05-16T06:04:00.173Z,10.70
2023-05-16T06:06:29.254Z,10.80
2023-05-16T06:08:55.926Z,10.80
2023-05-16T06:11:22.530Z,10.80
2023-05-16T06:13:49.170Z,10.80
2023-05-16T06:16:17.005Z,10.80
2023-05-16T06:18:44.260Z,10.80
2023-05-16T06:21:11.090Z,10.80
2023-05-16T06:23:37.702Z,10.80
2023-05-16T06:26:04.561Z,10.80
2023-05-16T06:28:31.577Z,10.80
2023-05-16T06:30:58.267Z,10.80
2023-05-16T06:33:24.947Z,10.70
2023-05-16T06:35:52.319Z,10.70
2023-05-16T06:38:22.192Z,10.80
2023-05-16T06:40:49.132Z,10.80
2023-05-16T06:43:16.052Z,10.80
2023-05-16T06:45:42.713Z,10.90
2023-05-16T06:48:09.484Z,10.90
2023-05-16T06:50:36.355Z,10.90
2023-05-16T06:53:04.892Z,10.80
2023-05-16T06:55:31.561Z,10.80
2023-05-16T06:57:58.332Z,11.00
2023-05-16T07:00:26.887Z,11.00
2023-05-16T07:02:53.721Z,11.00
2023-05-16T07:05:20.496Z,11.10
2023-05-16T07:07:47.717Z,11.00
2023-05-16T07:10:14.371Z,10.90
2023-05-16T07:12:43.161Z,10.90
2023-05-16T07:15:10.621Z,11.00
2023-05-16T07:17:37.580Z,10.90
2023-05-16T07:20:06.482Z,10.90
2023-05-16T07:22:33.221Z,10.90
2023-05-16T07:25:01.013Z,10.80
2023-05-16T07:27:28.414Z,10.80
2023-05-16T07:29:55.250Z,10.70
2023-05-16T07:32:22.145Z,10.70
2023-05-16T07:34:48.975Z,10.70
2023-05-16T07:37:16.216Z,10.80
2023-05-16T07:39:42.894Z,10.70
2023-05-16T07:42:09.931Z,10.70
2023-05-16T07:44:36.582Z,10.80
2023-05-16T07:47:03.346Z,10.80
2023-05-16T07:49:29.992Z,10.90
2023-05-16T07:51:56.642Z,10.90
2023-05-16T07:54:23.485Z,10.80
2023-05-16T07:56:50.124Z,10.90
2023-05-16T07:59:16.902Z,11.00
2023-05-16T08:01:43.587Z,11.10
2023-05-16T08:04:11.278Z,11.20
2023-05-16T08:06:37.895Z,11.20
2023-05-16T08:09:04.579Z,11.40
2023-05-16T08:11:31.288Z,11.40
2023-05-16T08:13:57.963Z,11.30
2023-05-16T08:16:24.635Z,11.20
2023-05-16T08:18:51.438Z,11.20
2023-05-16T08:21:18.189Z,11.20
2023-05-16T08:23:44.921Z,11.30
2023-05-16T08:26:11.786Z,11.40
2023-05-16T08:28:38.439Z,11.60
2023-05-16T08:31:05.277Z,11.70
2023-05-16T08:33:31.951Z,12.00
2023-05-16T08:35:59.211Z,11.60
2023-05-16T08:38:25.826Z,11.70
2023-05-16T08:40:52.521Z,11.80
2023-05-16T08:43:19.296Z,11.90
2023-05-16T08:45:45.960Z,11.90
2023-05-16T08:48:14.679Z,11.80
2023-05-16T08:50:42.837Z,11.90
2023-05-16T08:53:11.996Z,11.80
2023-05-16T08:55:41.018Z,11.80
2023-05-16T08:58:08.148Z,11.80
2023-05-16T09:00:35.892Z,11.90
2023-05-16T09:03:02.822Z,12.20
2023-05-16T09:05:30.489Z,12.30
2023-05-16T09:07:57.291Z,12.30
2023-05-16T09:10:24.184Z,12.50
2023-05-16T09:12:50.851Z,12.70
2023-05-16T09:15:20.664Z,13.20
2023-05-16T09:17:48.888Z,13.20
2023-05-16T09:20:20.517Z,13.10
2023-05-16T09:22:58.906Z,13.20
2023-05-16T09:25:32.053Z,13.10
2023-05-16T09:28:02.465Z,12.70
2023-05-16T09:30:34.872Z,12.70
2023-05-16T09:33:01.977Z,13.00
2023-05-16T09:37:58.796Z,13.20
2023-05-16T09:40:25.598Z,13.00
2023-05-16T09:43:06.913Z,13.00
2023-05-16T09:45:36.178Z,13.20
2023-05-16T09:48:07.581Z,13.30
2023-05-16T09:50:36.155Z,13.30
2023-05-16T09:53:03.716Z,13.70
2023-05-16T09:55:31.494Z,14.10
2023-05-16T09:57:58.569Z,14.50
2023-05-16T10:00:33.289Z,14.70
2023-05-16T10:03:06.041Z,14.80
2023-05-16T10:05:34.559Z,14.80
2023-05-16T10:08:04.229Z,14.70
2023-05-16T10:10:34.284Z,14.80
2023-05-16T10:13:05.674Z,14.60
2023-05-16T10:15:32.818Z,14.50
2023-05-16T10:18:00.316Z,14.50
2023-05-16T10:20:27.571Z,14.60
2023-05-16T10:22:56.391Z,14.50
2023-05-16T10:25:30.255Z,14.60
2023-05-16T10:27:58.997Z,14.80
2023-05-16T10:30:26.862Z,15.00
2023-05-16T10:32:53.904Z,15.30
2023-05-16T10:35:21.714Z,15.30
2023-05-16T10:37:50.656Z,14.90
2023-05-16T10:40:18.395Z,14.60
2023-05-16T10:42:58.724Z,14.50
2023-05-16T10:45:25.814Z,14.70
2023-05-16T10:48:09.328Z,14.40
2023-05-16T10:50:44.865Z,14.80
2023-05-16T10:53:21.356Z,14.70
2023-05-16T10:56:09.986Z,14.80
2023-05-16T10:58:38.028Z,14.80
2023-05-16T11:01:27.497Z,15.20
2023-05-16T11:03:58.097Z,14.90
2023-05-16T11:06:42.612Z,15.00
2023-05-16T11:09:13.410Z,15.20
2023-05-16T11:11:52.287Z,15.10
2023-05-16T11:14:33.015Z,15.20
2023-05-16T11:17:14.100Z,15.00
2023-05-16T11:19:58.940Z,15.20
2023-05-16T11:22:29.993Z,15.20
2023-05-16T11:24:57.747Z,15.10
2023-05-16T11:27:31.008Z,15.00
2023-05-16T11:30:06.859Z,14.90
2023-05-16T11:32:41.090Z,14.80
2023-05-16T11:35:13.620Z,14.80
2023-05-16T11:37:41.982Z,14.90
2023-05-16T11:40:11.305Z,14.80
2023-05-16T11:42:42.290Z,14.70
2023-05-16T11:45:19.688Z,14.50
2023-05-16T11:47:49.262Z,14.50
2023-05-16T11:50:23.329Z,14.60
2023-05-16T11:52:53.863Z,14.60
2023-05-16T11:55:39.585Z,14.70
2023-05-16T11:58:08.732Z,15.00
2023-05-16T12:00:35.521Z,15.00
2023-05-16T12:03:04.453Z,15.00
2023-05-16T12:05:32.865Z,14.70
2023-05-16T12:08:00.151Z,14.70
2023-05-16T12:10:27.134Z,14.70
2023-05-16T12:12:56.157Z,14.40
2023-05-16T12:15:22.910Z,14.40
2023-05-16T12:17:50.731Z,14.30
2023-05-16T12:20:18.044Z,14.40
2023-05-16T12:22:46.470Z,14.40
2023-05-16T12:25:35.956Z,14.50
2023-05-16T12:28:07.650Z,14.70
2023-05-16T12:30:34.401Z,15.00
2023-05-16T12:33:07.000Z,15.10
2023-05-16T12:35:38.246Z,14.90
2023-05-16T12:38:05.940Z,15.00
2023-05-16T12:40:32.657Z,15.20
2023-05-16T12:42:59.834Z,15.10
2023-05-16T12:45:27.927Z,15.10
2023-05-16T12:47:54.856Z,15.10
2023-05-16T12:50:22.735Z,15.20
2023-05-16T12:52:59.046Z,15.10
2023-05-16T12:55:26.836Z,15.00
2023-05-16T12:57:55.673Z,14.80
2023-05-16T13:00:23.244Z,14.80
2023-05-16T13:02:50.664Z,14.80
2023-05-16T13:05:17.882Z,14.90
2023-05-16T13:07:44.619Z,15.10
2023-05-16T13:10:12.578Z,15.20
2023-05-16T13:12:40.714Z,15.30
2023-05-16T13:15:09.618Z,15.10
2023-05-16T13:17:38.232Z,14.90
2023-05-16T13:20:10.100Z,15.00
2023-05-16T13:22:37.130Z,15.20
2023-05-16T13:25:05.880Z,15.20
2023-05-16T13:27:33.283Z,15.30
2023-05-16T13:30:00.779Z,15.60
2023-05-16T13:32:27.585Z,15.60
2023-05-16T13:34:54.415Z,15.60
2023-05-16T13:37:21.253Z,15.60
2023-05-16T13:39:47.869Z,15.50
2023-05-16T13:42:14.473Z,15.40
2023-05-16T13:44:41.129Z,15.30
2023-05-16T13:47:08.614Z,15.40
2023-05-16T13:49:35.575Z,15.50
2023-05-16T13:52:02.573Z,15.20
2023-05-16T13:54:29.272Z,14.90
2023-05-16T13:56:57.455Z,14.80
2023-05-16T13:59:45.574Z,14.90
2023-05-16T14:02:10.705Z,14.90
2023-05-16T14:04:37.372Z,14.80
2023-05-16T14:07:04.298Z,15.00
2023-05-16T14:09:31.574Z,15.10
2023-05-16T14:11:58.186Z,15.20
2023-05-16T14:14:24.796Z,15.40
2023-05-16T14:16:51.676Z,15.20
2023-05-16T14:19:19.421Z,15.10
2023-05-16T14:21:46.372Z,14.90
2023-05-16T14:24:13.063Z,15.10
2023-05-16T14:26:39.669Z,15.50
2023-05-16T14:29:06.311Z,16.00
2023-05-16T14:31:33.123Z,16.10
2023-05-16T14:33:59.791Z,15.80
2023-05-16T14:36:26.413Z,15.50
2023-05-16T14:38:53.072Z,15.40
2023-05-16T14:41:19.729Z,15.10
2023-05-16T14:43:46.394Z,14.90
2023-05-16T14:46:13.268Z,14.70
2023-05-16T14:48:39.884Z,14.50
2023-05-16T14:51:06.858Z,14.30
2023-05-16T14:53:33.497Z,14.20
2023-05-16T14:56:02.622Z,14.30
2023-05-16T14:58:30.635Z,14.40
2023-05-16T15:00:57.344Z,14.30
2023-05-16T15:03:24.239Z,14.20
2023-05-16T15:05:51.155Z,14.20
2023-05-16T15:08:17.865Z,14.30
2023-05-16T15:10:44.625Z,14.40
2023-05-16T15:13:11.291Z,14.30
2023-05-16T15:15:38.692Z,14.40
2023-05-16T15:18:05.615Z,14.20
2023-05-16T15:20:33.208Z,14.20
2023-05-16T15:23:00.337Z,14.20
2023-05-16T15:25:27.948Z,14.30
2023-05-16T15:27:55.560Z,14.30
2023-05-16T15:30:22.320Z,14.60
2023-05-16T15:32:48.962Z,14.90
2023-05-16T15:35:16.183Z,15.30
2023-05-16T15:37:43.578Z,15.50
2023-05-16T15:40:11.940Z,15.70
2023-05-16T15:42:38.553Z,15.90
2023-05-16T15:45:05.890Z,16.10
2023-05-16T15:47:32.624Z,16.30
2023-05-16T15:49:59.420Z,16.50
2023-05-16T15:52:26.099Z,16.50
2023-05-16T15:54:52.721Z,16.60
2023-05-16T15:57:19.422Z,16.50
2023-05-16T15:59:46.266Z,16.50
2023-05-16T16:02:13.572Z,16.20
2023-05-16T16:04:40.413Z,16.00
2023-05-16T16:07:07.080Z,15.80
2023-05-16T16:09:33.818Z,15.60
2023-05-16T16:12:00.413Z,15.40
2023-05-16T16:14:27.043Z,15.20
2023-05-16T16:16:53.977Z,15.10
2023-05-16T16:19:21.603Z,14.80
2023-05-16T16:21:48.307Z,14.60
2023-05-16T16:24:15.155Z,14.60
2023-05-16T16:26:43.292Z,14.70
2023-05-16T16:29:09.915Z,14.70
2023-05-16T16:31:36.619Z,14.60
2023-05-16T16:34:03.645Z,14.50
2023-05-16T16:36:31.502Z,14.30
2023-05-16T16:38:59.387Z,14.40
2023-05-16T16:41:26.047Z,14.40
2023-05-16T16:43:52.910Z,14.40
2023-05-16T16:46:19.667Z,14.30
2023-05-16T16:48:46.340Z,14.20
2023-05-16T16:51:12.996Z,14.10
2023-05-16T16:53:40.911Z,14.00
2023-05-16T16:56:07.879Z,14.00
2023-05-16T16:58:34.549Z,14.10
2023-05-16T17:01:01.729Z,14.10
2023-05-16T17:03:28.458Z,14.10
2023-05-16T17:05:55.150Z,14.30
2023-05-16T17:08:22.093Z,14.50
2023-05-16T17:10:48.787Z,14.60
2023-05-16T17:13:17.516Z,14.70
2023-05-16T17:15:44.316Z,14.80
2023-05-16T17:18:11.172Z,14.90
2023-05-16T17:20:38.752Z,14.80
2023-05-16T17:23:05.398Z,14.90
2023-05-16T17:25:32.343Z,15.00
2023-05-16T17:27:59.037Z,15.00
2023-05-16T17:30:26.145Z,14.90
2023-05-16T17:32:53.510Z,14.90
2023-05-16T17:35:20.466Z,14.70
2023-05-16T17:37:47.725Z,14.50
2023-05-16T17:40:17.668Z,14.40
2023-05-16T17:42:45.325Z,14.40
2023-05-16T17:45:16.330Z,14.20
2023-05-16T17:47:43.391Z,14.10
2023-05-16T17:50:10.884Z,14.00
2023-05-16T17:52:39.521Z,13.90
2023-05-16T17:55:09.009Z,13.90
2023-05-16T17:57:35.952Z,13.80
2023-05-16T18:00:05.349Z,13.70
2023-05-16T18:02:32.490Z,13.60
2023-05-16T18:04:59.501Z,13.50
2023-05-16T18:07:26.994Z,13.40
2023-05-16T18:09:56.847Z,13.40
2023-05-16T18:12:23.544Z,13.40
2023-05-16T18:14:50.493Z,13.30
2023-05-16T18:17:17.300Z,13.30
2023-05-16T18:19:44.055Z,13.20
2023-05-16T18:22:12.324Z,13.20
2023-05-16T18:24:39.758Z,13.10
2023-05-16T18:27:06.737Z,13.00
2023-05-16T18:29:34.169Z,12.90
2023-05-16T18:32:01.061Z,12.80
2023-05-16T18:34:27.854Z,12.70
2023-05-16T18:36:54.578Z,12.60
2023-05-16T18:39:21.277Z,12.40
2023-05-16T18:41:48.321Z,12.40
2023-05-16T18:44:18.664Z,12.30
2023-05-16T18:46:46.146Z,12.10
2023-05-16T18:49:13.868Z,11.90
2023-05-16T18:51:40.636Z,11.70
2023-05-16T18:54:07.396Z,11.60
2023-05-16T18:56:34.225Z,11.40
2023-05-16T18:59:00.903Z,11.30
2023-05-16T19:01:27.832Z,11.20
2023-05-16T19:03:54.744Z,11.10
2023-05-16T19:06:21.466Z,11.00
2023-05-16T19:08:48.556Z,10.80
2023-05-16T19:11:17.440Z,10.60
2023-05-16T19:13:45.389Z,10.60
2023-05-16T19:16:12.089Z,10.50
2023-05-16T19:18:39.168Z,10.50
2023-05-16T19:21:07.701Z,10.30
2023-05-16T19:23:34.400Z,10.30
2023-05-16T19:26:01.182Z,10.10
2023-05-16T19:28:27.863Z,10.10
2023-05-16T19:30:54.560Z,9.90
2023-05-16T19:33:21.666Z,9.90
2023-05-16T19:35:48.918Z,9.80
2023-05-16T19:38:15.632Z,9.70
2023-05-16T19:40:42.370Z,9.70
2023-05-16T19:43:09.063Z,9.60
2023-05-16T19:45:36.279Z,9.50
2023-05-16T19:48:03.420Z,9.50
2023-05-16T19:50:30.189Z,9.40
2023-05-16T19:52:56.809Z,9.30
2023-05-16T19:55:23.555Z,9.10
2023-05-16T19:57:52.114Z,9.10
2023-05-16T20:00:19.507Z,9.00
2023-05-16T20:02:46.517Z,8.90
2023-05-16T20:05:14.352Z,8.90
2023-05-16T20:07:41.299Z,8.80
2023-05-16T20:10:09.148Z,8.60
2023-05-16T20:12:35.855Z,8.60
2023-05-16T20:15:04.912Z,8.50
2023-05-16T20:17:31.559Z,8.50
2023-05-16T20:19:58.354Z,8.40
2023-05-16T20:22:25.206Z,8.40
2023-05-16T20:24:52.100Z,8.40
2023-05-16T20:27:19.118Z,8.40
2023-05-16T20:29:45.883Z,8.40
2023-05-16T20:32:12.544Z,8.40
2023-05-16T20:34:41.519Z,8.40
2023-05-16T20:37:08.422Z,8.40
2023-05-16T20:39:35.069Z,8.30
2023-05-16T20:42:01.824Z,8.20
2023-05-16T20:44:29.213Z,8.20
2023-05-16T20:46:55.959Z,8.10
2023-05-16T20:49:25.794Z,8.00
2023-05-16T20:51:52.426Z,8.00
2023-05-16T20:54:19.168Z,7.90
2023-05-16T20:56:45.837Z,8.00
2023-05-16T20:59:12.499Z,7.90
2023-05-16T21:01:39.147Z,7.80
2023-05-16T21:04:05.866Z,7.70
2023-05-16T21:06:32.528Z,7.60
2023-05-16T21:08:59.633Z,7.60
2023-05-16T21:11:27.505Z,7.60
2023-05-16T21:13:54.188Z,7.60
2023-05-16T21:16:20.928Z,7.70
2023-05-16T21:18:48.479Z,7.60
2023-05-16T21:21:15.408Z,7.60
2023-05-16T21:23:42.267Z,7.60
2023-05-16T21:26:08.886Z,7.50
2023-05-16T21:28:42.652Z,7.60
2023-05-16T21:31:17.930Z,7.50
2023-05-16T21:33:44.611Z,7.50
2023-05-16T21:36:11.421Z,7.40
2023-05-16T21:38:38.058Z,7.40
2023-05-16T21:41:04.864Z,7.40
2023-05-16T21:43:31.537Z,7.30
2023-05-16T21:45:58.177Z,7.30
2023-05-16T21:48:25.050Z,7.30
2023-05-16T21:50:51.772Z,7.20
2023-05-16T21:53:19.130Z,7.20
2023-05-16T21:55:46.114Z,7.20
2023-05-16T21:58:12.751Z,7.20
2023-05-16T22:00:39.734Z,7.20
2023-05-16T22:03:06.494Z,7.20
2023-05-16T22:05:33.176Z,7.10
2023-05-16T22:07:59.806Z,7.20
2023-05-16T22:10:26.433Z,7.20
2023-05-16T22:12:53.058Z,7.20
2023-05-16T22:15:19.679Z,7.20
2023-05-16T22:17:47.932Z,7.20
2023-05-16T22:20:14.713Z,7.20
2023-05-16T22:22:41.430Z,7.10
2023-05-16T22:25:08.498Z,7.10
2023-05-16T22:27:35.252Z,7.10
2023-05-16T22:30:01.951Z,7.10
2023-05-16T22:32:28.711Z,7.00
2023-05-16T22:34:55.559Z,7.00
2023-05-16T22:37:22.265Z,7.00
2023-05-16T22:39:48.879Z,7.10
2023-05-16T22:42:15.639Z,7.10
2023-05-16T22:44:42.320Z,7.10
2023-05-16T22:47:08.943Z,7.00
2023-05-16T22:49:35.628Z,7.00
2023-05-16T22:52:02.301Z,7.00
2023-05-16T22:54:28.986Z,7.00
2023-05-16T22:56:55.946Z,7.00
2023-05-16T22:59:23.999Z,6.90
2023-05-16T23:01:53.639Z,6.90
2023-05-16T23:04:20.353Z,6.90
2023-05-16T23:06:47.313Z,7.00
2023-05-16T23:09:13.898Z,7.10
2023-05-16T23:11:40.513Z,7.10
2023-05-16T23:14:07.164Z,7.10
2023-05-16T23:16:33.822Z,7.10
2023-05-16T23:19:00.683Z,6.90
2023-05-16T23:21:27.409Z,6.90
2023-05-16T23:23:54.148Z,6.90
2023-05-16T23:26:20.780Z,6.90
2023-05-16T23:28:47.399Z,6.90
2023-05-16T23:31:14.020Z,7.00
2023-05-16T23:33:40.687Z,7.00
2023-05-16T23:36:07.491Z,7.00
2023-05-16T23:38:34.094Z,7.00
2023-05-16T23:41:00.699Z,7.00
2023-05-16T23:43:27.341Z,7.00
2023-05-16T23:45:53.952Z,7.00
2023-05-16T23:48:20.604Z,6.90
2023-05-16T23:50:47.307Z,6.80
2023-05-16T23:53:14.111Z,6.80
2023-05-16T23:55:40.877Z,6.90
2023-05-16T23:58:07.518Z,6.90
